createdAt,value
2022-12-26T00:01:16.454Z,2.10
2022-12-26T00:03:44.965Z,1.77
2022-12-26T00:06:14.929Z,1.80
2022-12-26T00:08:43.233Z,1.70
2022-12-26T00:11:11.774Z,1.90
2022-12-26T00:13:41.810Z,1.83
2022-12-26T00:16:11.836Z,1.90
2022-12-26T00:18:41.767Z,1.97
2022-12-26T00:21:11.639Z,1.80
2022-12-26T00:23:40.414Z,2.17
2022-12-26T00:26:12.252Z,2.20
2022-12-26T00:28:40.559Z,1.93
2022-12-26T00:31:12.150Z,2.23
2022-12-26T00:33:42.148Z,2.20
2022-12-26T00:36:13.022Z,2.03
2022-12-26T00:38:42.579Z,2.00
2022-12-26T00:41:11.616Z,2.77
2022-12-26T00:43:39.773Z,2.30
2022-12-26T00:46:09.137Z,2.47
2022-12-26T00:48:37.420Z,2.03
2022-12-26T00:51:07.701Z,2.13
2022-12-26T00:53:36.670Z,2.23
2022-12-26T00:56:05.282Z,2.10
2022-12-26T00:58:33.960Z,1.90
2022-12-26T01:01:11.306Z,2.23
2022-12-26T01:03:39.920Z,2.10
2022-12-26T01:06:09.946Z,2.20
2022-12-26T01:08:38.307Z,2.50
2022-12-26T01:11:08.802Z,2.20
2022-12-26T01:13:37.460Z,2.00
2022-12-26T01:16:06.966Z,2.13
2022-12-26T01:18:35.927Z,2.10
2022-12-26T01:21:07.360Z,1.80
2022-12-26T01:23:37.063Z,2.13
2022-12-26T01:26:17.048Z,1.60
2022-12-26T01:28:49.242Z,2.03
2022-12-26T01:31:18.073Z,2.20
2022-12-26T01:33:46.997Z,1.90
2022-12-26T01:36:15.296Z,1.90
2022-12-26T01:38:45.087Z,1.93
2022-12-26T01:41:20.625Z,2.33
2022-12-26T01:43:55.829Z,2.17
2022-12-26T01:46:27.643Z,1.90
2022-12-26T01:48:56.819Z,2.20
2022-12-26T01:51:26.983Z,2.17
2022-12-26T01:54:40.130Z,2.10
2022-12-26T01:56:47.483Z,2.20
2022-12-26T01:59:21.017Z,1.87
2022-12-26T02:01:51.582Z,2.10
2022-12-26T02:04:42.485Z,1.70
2022-12-26T02:07:10.965Z,1.97
2022-12-26T02:09:40.744Z,1.90
2022-12-26T02:12:33.871Z,2.33
2022-12-26T02:15:01.155Z,2.00
2022-12-26T02:17:30.428Z,1.90
2022-12-26T02:20:04.071Z,2.23
2022-12-26T02:22:49.038Z,2.07
2022-12-26T02:25:42.100Z,1.87
2022-12-26T02:28:44.326Z,1.70
2022-12-26T02:31:15.767Z,2.10
2022-12-26T02:34:00.051Z,2.43
2022-12-26T02:36:41.711Z,2.00
2022-12-26T02:39:42.579Z,1.90
2022-12-26T02:42:15.640Z,1.97
2022-12-26T02:45:04.217Z,2.20
2022-12-26T02:47:38.223Z,1.67
2022-12-26T02:50:30.700Z,2.37
2022-12-26T02:53:25.202Z,1.93
2022-12-26T02:56:15.513Z,2.20
2022-12-26T02:59:06.894Z,1.90
2022-12-26T03:01:57.810Z,1.97
2022-12-26T03:04:46.139Z,1.90
2022-12-26T03:07:30.738Z,1.97
2022-12-26T03:10:23.436Z,1.77
2022-12-26T03:13:13.324Z,2.00
2022-12-26T03:16:03.190Z,1.83
2022-12-26T03:19:00.172Z,2.30
2022-12-26T03:21:24.423Z,1.77
2022-12-26T03:23:53.577Z,1.70
2022-12-26T03:26:40.563Z,1.93
2022-12-26T03:29:28.580Z,1.77
2022-12-26T03:31:56.847Z,1.50
2022-12-26T03:34:25.571Z,2.00
2022-12-26T03:37:25.673Z,1.77
2022-12-26T03:40:38.902Z,1.63
2022-12-26T03:43:31.012Z,1.90
2022-12-26T03:46:22.735Z,2.10
2022-12-26T03:49:11.454Z,2.03
2022-12-26T03:52:02.602Z,1.73
2022-12-26T03:54:55.678Z,1.87
2022-12-26T03:57:43.510Z,1.80
2022-12-26T04:00:31.071Z,1.87
2022-12-26T04:03:27.951Z,1.87
2022-12-26T04:06:14.922Z,1.53
2022-12-26T04:09:04.417Z,1.93
2022-12-26T04:11:55.042Z,1.47
2022-12-26T04:14:51.472Z,1.97
2022-12-26T04:17:44.526Z,1.70
2022-12-26T04:20:18.159Z,2.20
2022-12-26T04:23:07.666Z,1.70
2022-12-26T04:25:55.800Z,1.90
2022-12-26T04:28:42.849Z,1.87
2022-12-26T04:31:33.241Z,2.13
2022-12-26T04:34:20.811Z,2.07
2022-12-26T04:37:10.052Z,1.80
2022-12-26T04:39:57.151Z,1.83
2022-12-26T04:42:43.563Z,1.80
2022-12-26T04:45:14.306Z,1.70
2022-12-26T04:48:03.042Z,2.03
2022-12-26T04:50:30.311Z,1.80
2022-12-26T04:53:01.233Z,1.80
2022-12-26T04:55:30.774Z,2.10
2022-12-26T04:57:59.624Z,2.03
2022-12-26T05:00:30.349Z,2.10
2022-12-26T05:03:19.558Z,1.90
2022-12-26T05:06:06.875Z,1.90
2022-12-26T05:08:54.959Z,2.10
2022-12-26T05:11:23.467Z,2.40
2022-12-26T05:13:52.957Z,2.00
2022-12-26T05:16:40.618Z,2.00
2022-12-26T05:19:29.331Z,1.77
2022-12-26T05:22:15.543Z,1.90
2022-12-26T05:25:01.371Z,2.53
2022-12-26T05:27:53.003Z,2.10
2022-12-26T05:30:21.354Z,1.70
2022-12-26T05:33:08.485Z,1.90
2022-12-26T05:35:36.924Z,2.00
2022-12-26T05:38:05.520Z,1.87
2022-12-26T05:40:33.729Z,2.10
2022-12-26T05:43:01.877Z,1.93
2022-12-26T05:45:30.132Z,2.07
2022-12-26T05:48:01.122Z,2.20
2022-12-26T05:50:29.601Z,2.00
2022-12-26T05:52:57.960Z,1.97
2022-12-26T05:55:26.351Z,2.00
2022-12-26T05:57:55.047Z,2.03
2022-12-26T06:00:23.847Z,2.47
2022-12-26T06:02:52.175Z,2.27
2022-12-26T06:05:21.948Z,2.20
2022-12-26T06:07:50.027Z,1.67
2022-12-26T06:10:18.121Z,2.00
2022-12-26T06:12:46.271Z,2.00
2022-12-26T06:15:14.627Z,2.10
2022-12-26T06:17:43.170Z,2.20
2022-12-26T06:20:12.224Z,2.10
2022-12-26T06:22:41.769Z,2.30
2022-12-26T06:25:10.759Z,2.20
2022-12-26T06:27:38.813Z,2.20
2022-12-26T06:30:07.693Z,1.83
2022-12-26T06:32:35.927Z,2.10
2022-12-26T06:35:04.087Z,2.00
2022-12-26T06:37:34.346Z,1.80
2022-12-26T06:40:04.389Z,2.13
2022-12-26T06:42:33.096Z,2.30
2022-12-26T06:45:01.279Z,2.47
2022-12-26T06:47:30.232Z,1.90
2022-12-26T06:49:58.535Z,1.60
2022-12-26T06:52:26.815Z,1.50
2022-12-26T06:54:54.978Z,1.47
2022-12-26T06:57:24.416Z,0.90
2022-12-26T06:59:52.537Z,1.40
2022-12-26T07:02:20.753Z,0.80
2022-12-26T07:04:48.957Z,1.07
2022-12-26T07:07:17.044Z,1.00
2022-12-26T07:09:45.173Z,1.20
2022-12-26T07:12:13.272Z,1.07
2022-12-26T07:14:43.129Z,1.00
2022-12-26T07:17:11.789Z,1.03
2022-12-26T07:19:39.896Z,1.20
2022-12-26T07:22:08.100Z,1.57
2022-12-26T07:24:36.232Z,1.20
2022-12-26T07:27:04.639Z,1.20
2022-12-26T07:29:33.008Z,1.37
2022-12-26T07:32:02.579Z,1.60
2022-12-26T07:34:31.921Z,1.70
2022-12-26T07:37:01.399Z,1.90
2022-12-26T07:39:29.540Z,2.10
2022-12-26T07:42:00.891Z,2.20
2022-12-26T07:44:30.435Z,1.87
2022-12-26T07:46:59.470Z,1.47
2022-12-26T07:49:29.001Z,2.10
2022-12-26T07:51:57.240Z,1.70
2022-12-26T07:54:28.183Z,2.03
2022-12-26T07:57:15.163Z,1.60
2022-12-26T07:59:44.387Z,1.97
2022-12-26T08:02:12.655Z,1.73
2022-12-26T08:04:42.178Z,2.13
2022-12-26T08:07:11.175Z,2.00
2022-12-26T08:09:43.154Z,2.10
2022-12-26T08:12:13.121Z,2.17
2022-12-26T08:14:41.382Z,2.00
2022-12-26T08:17:10.238Z,2.40
2022-12-26T08:19:38.475Z,3.20
2022-12-26T08:22:08.015Z,3.10
2022-12-26T08:24:36.153Z,2.57
2022-12-26T08:27:05.439Z,2.53
2022-12-26T08:29:33.543Z,3.03
2022-12-26T08:32:01.912Z,3.13
2022-12-26T08:34:33.717Z,3.10
2022-12-26T08:37:01.994Z,2.77
2022-12-26T08:39:31.976Z,3.50
2022-12-26T08:42:00.187Z,2.70
2022-12-26T08:44:29.081Z,3.03
2022-12-26T08:46:57.471Z,3.27
2022-12-26T08:49:25.831Z,3.20
2022-12-26T08:51:54.001Z,3.60
2022-12-26T08:54:22.836Z,3.73
2022-12-26T08:56:52.396Z,2.93
2022-12-26T08:59:20.879Z,2.60
2022-12-26T09:01:49.125Z,2.63
2022-12-26T09:04:17.445Z,2.70
2022-12-26T09:06:45.993Z,3.20
2022-12-26T09:09:14.657Z,2.80
2022-12-26T09:11:43.395Z,3.00
2022-12-26T09:14:13.110Z,3.10
2022-12-26T09:16:49.775Z,3.17
2022-12-26T09:19:19.314Z,3.13
2022-12-26T09:21:48.274Z,3.10
2022-12-26T09:24:18.109Z,3.80
2022-12-26T09:26:46.350Z,3.33
2022-12-26T09:29:15.892Z,4.27
2022-12-26T09:31:44.161Z,3.40
2022-12-26T09:34:12.507Z,3.87
2022-12-26T09:36:40.769Z,3.70
2022-12-26T09:39:09.600Z,3.77
2022-12-26T09:41:47.196Z,3.77
2022-12-26T09:44:20.772Z,3.63
2022-12-26T09:46:56.852Z,3.60
2022-12-26T09:49:28.951Z,3.60
2022-12-26T09:51:58.415Z,3.60
2022-12-26T09:54:32.024Z,3.50
2022-12-26T09:57:03.040Z,3.70
2022-12-26T09:59:36.251Z,3.80
2022-12-26T10:02:05.389Z,2.30
2022-12-26T10:04:33.638Z,2.00
2022-12-26T10:07:07.461Z,1.40
2022-12-26T10:09:52.741Z,1.77
2022-12-26T10:12:34.469Z,1.80
2022-12-26T10:15:13.315Z,1.43
2022-12-26T10:17:46.300Z,1.53
2022-12-26T10:20:23.849Z,1.40
2022-12-26T10:23:24.559Z,1.17
2022-12-26T10:25:55.236Z,1.30
2022-12-26T10:28:30.046Z,1.70
2022-12-26T10:31:01.581Z,1.07
2022-12-26T10:33:36.871Z,1.20
2022-12-26T10:36:05.257Z,1.53
2022-12-26T10:38:38.706Z,1.20
2022-12-26T10:41:11.113Z,1.10
2022-12-26T10:43:42.716Z,1.33
2022-12-26T10:46:29.333Z,0.90
2022-12-26T10:48:57.751Z,1.20
2022-12-26T10:51:26.244Z,1.40
2022-12-26T10:53:55.507Z,1.30
2022-12-26T10:56:26.468Z,1.50
2022-12-26T10:59:01.697Z,1.30
2022-12-26T11:01:36.787Z,1.00
2022-12-26T11:04:07.211Z,1.17
2022-12-26T11:06:38.482Z,1.20
2022-12-26T11:09:07.980Z,1.20
2022-12-26T11:11:47.203Z,1.17
2022-12-26T11:14:33.773Z,1.03
2022-12-26T11:17:06.380Z,1.10
2022-12-26T11:19:36.556Z,1.27
2022-12-26T11:22:24.020Z,1.20
2022-12-26T11:25:14.801Z,1.80
2022-12-26T11:27:45.378Z,1.10
2022-12-26T11:30:19.410Z,1.30
2022-12-26T11:32:51.025Z,1.00
2022-12-26T11:35:20.731Z,1.20
2022-12-26T11:37:52.708Z,1.30
2022-12-26T11:40:24.286Z,1.10
2022-12-26T11:42:55.384Z,1.00
2022-12-26T11:45:26.489Z,1.30
2022-12-26T11:47:57.606Z,1.20
2022-12-26T11:50:29.676Z,0.80
2022-12-26T11:53:07.152Z,1.13
2022-12-26T11:55:37.229Z,1.23
2022-12-26T11:58:19.181Z,1.03
2022-12-26T12:01:06.820Z,1.30
2022-12-26T12:03:40.002Z,1.17
2022-12-26T12:06:24.030Z,1.23
2022-12-26T12:09:05.413Z,1.10
2022-12-26T12:11:38.331Z,1.20
2022-12-26T12:14:14.983Z,1.10
2022-12-26T12:16:53.318Z,0.93
2022-12-26T12:19:31.370Z,1.27
2022-12-26T12:22:12.011Z,1.33
2022-12-26T12:24:55.210Z,1.10
2022-12-26T12:27:29.524Z,0.97
2022-12-26T12:30:21.661Z,1.07
2022-12-26T12:33:13.332Z,1.10
2022-12-26T12:35:54.421Z,1.63
2022-12-26T12:38:34.307Z,1.60
2022-12-26T12:41:14.990Z,1.40
2022-12-26T12:43:50.158Z,1.07
2022-12-26T12:46:24.815Z,1.20
2022-12-26T12:49:19.148Z,1.20
2022-12-26T12:51:54.253Z,1.13
2022-12-26T12:54:42.383Z,0.97
2022-12-26T12:57:16.189Z,1.00
2022-12-26T12:59:53.146Z,1.07
2022-12-26T13:02:24.872Z,1.30
2022-12-26T13:04:58.875Z,1.03
2022-12-26T13:07:32.238Z,1.10
2022-12-26T13:10:01.971Z,0.83
2022-12-26T13:12:35.018Z,1.17
2022-12-26T13:15:07.489Z,1.30
2022-12-26T13:17:39.064Z,0.80
2022-12-26T13:20:15.822Z,0.83
2022-12-26T13:23:05.558Z,0.80
2022-12-26T13:25:37.105Z,1.70
2022-12-26T13:28:10.555Z,1.43
2022-12-26T13:30:39.773Z,1.23
2022-12-26T13:33:07.980Z,1.30
2022-12-26T13:35:53.652Z,0.93
2022-12-26T13:38:24.813Z,1.10
2022-12-26T13:41:17.882Z,1.73
2022-12-26T13:44:00.816Z,1.40
2022-12-26T13:46:56.124Z,1.20
2022-12-26T13:49:31.490Z,1.53
2022-12-26T13:52:01.480Z,1.00
2022-12-26T13:54:32.024Z,1.10
2022-12-26T13:57:20.235Z,1.10
2022-12-26T13:59:57.869Z,1.37
2022-12-26T14:03:16.501Z,1.60
2022-12-26T14:05:39.536Z,0.90
2022-12-26T14:08:13.089Z,1.00
2022-12-26T14:10:49.642Z,1.30
2022-12-26T14:13:35.940Z,1.00
2022-12-26T14:16:10.245Z,0.73
2022-12-26T14:18:45.530Z,0.90
2022-12-26T14:21:44.765Z,0.90
2022-12-26T14:24:24.356Z,0.90
2022-12-26T14:26:59.574Z,1.00
2022-12-26T14:29:32.800Z,0.80
2022-12-26T14:32:13.507Z,0.97
2022-12-26T14:35:01.534Z,1.07
2022-12-26T14:37:36.094Z,1.00
2022-12-26T14:40:20.955Z,1.13
2022-12-26T14:43:22.812Z,2.57
2022-12-26T14:45:52.349Z,2.40
2022-12-26T14:48:49.013Z,1.70
2022-12-26T14:51:47.619Z,1.47
2022-12-26T14:54:50.728Z,2.40
2022-12-26T14:57:48.162Z,2.37
2022-12-26T15:00:34.010Z,1.80
2022-12-26T15:03:46.046Z,1.23
2022-12-26T15:06:51.663Z,1.60
2022-12-26T15:09:36.822Z,1.37
2022-12-26T15:12:21.371Z,1.40
2022-12-26T15:15:17.850Z,1.43
2022-12-26T15:17:55.339Z,1.30
2022-12-26T15:21:15.290Z,1.43
2022-12-26T15:24:15.452Z,1.47
2022-12-26T15:27:24.426Z,1.43
2022-12-26T15:30:11.735Z,1.60
2022-12-26T15:32:45.499Z,1.83
2022-12-26T15:35:20.556Z,2.27
2022-12-26T15:38:16.386Z,1.70
2022-12-26T15:40:46.238Z,1.73
2022-12-26T15:43:36.775Z,2.07
2022-12-26T15:46:10.768Z,1.70
2022-12-26T15:48:59.001Z,1.70
2022-12-26T15:51:37.661Z,2.20
2022-12-26T15:54:16.438Z,2.00
2022-12-26T15:56:54.988Z,2.07
2022-12-26T16:00:02.965Z,2.27
2022-12-26T16:02:46.921Z,2.10
2022-12-26T16:05:34.679Z,2.40
2022-12-26T16:08:16.674Z,2.57
2022-12-26T16:10:44.918Z,2.07
2022-12-26T16:13:22.961Z,2.37
2022-12-26T16:15:53.689Z,2.20
2022-12-26T16:18:24.808Z,2.73
2022-12-26T16:21:11.350Z,2.77
2022-12-26T16:23:42.084Z,2.60
2022-12-26T16:26:17.596Z,2.60
2022-12-26T16:28:46.473Z,2.07
2022-12-26T16:31:19.769Z,2.20
2022-12-26T16:33:48.499Z,2.30
2022-12-26T16:36:20.949Z,1.97
2022-12-26T16:38:51.083Z,2.10
2022-12-26T16:41:22.088Z,1.70
2022-12-26T16:43:51.060Z,1.83
2022-12-26T16:46:22.634Z,2.30
2022-12-26T16:48:54.947Z,1.83
2022-12-26T16:51:40.192Z,2.50
2022-12-26T16:54:28.972Z,2.67
2022-12-26T16:57:03.814Z,2.13
2022-12-26T16:59:39.792Z,2.10
2022-12-26T17:02:16.691Z,1.93
2022-12-26T17:04:54.333Z,1.83
2022-12-26T17:07:26.557Z,1.93
2022-12-26T17:09:58.247Z,1.87
2022-12-26T17:12:28.370Z,2.03
2022-12-26T17:14:58.271Z,2.00
2022-12-26T17:17:34.792Z,1.80
2022-12-26T17:20:32.999Z,1.63
2022-12-26T17:23:01.119Z,2.10
2022-12-26T17:25:33.678Z,2.00
2022-12-26T17:28:24.333Z,2.00
2022-12-26T17:30:54.319Z,1.77
2022-12-26T17:33:25.620Z,2.03
2022-12-26T17:38:46.188Z,2.20
2022-12-26T17:41:17.782Z,2.10
2022-12-26T17:43:47.010Z,2.70
2022-12-26T17:46:17.365Z,2.33
2022-12-26T17:48:46.029Z,2.50
2022-12-26T17:51:17.248Z,2.20
2022-12-26T17:53:50.066Z,2.73
2022-12-26T17:56:22.628Z,2.83
2022-12-26T17:58:51.397Z,2.80
2022-12-26T18:01:22.030Z,2.47
2022-12-26T18:03:52.079Z,2.63
2022-12-26T18:06:21.876Z,2.50
2022-12-26T18:08:50.155Z,2.13
2022-12-26T18:11:19.746Z,2.60
2022-12-26T18:13:47.912Z,2.70
2022-12-26T18:16:17.383Z,2.60
2022-12-26T18:18:46.893Z,2.30
2022-12-26T18:21:16.681Z,2.60
2022-12-26T18:23:45.301Z,2.90
2022-12-26T18:26:17.597Z,2.40
2022-12-26T18:28:47.490Z,2.67
2022-12-26T18:31:16.643Z,3.40
2022-12-26T18:33:45.070Z,3.00
2022-12-26T18:36:13.700Z,3.47
2022-12-26T18:38:41.897Z,3.00
2022-12-26T18:41:11.546Z,2.97
2022-12-26T18:43:39.785Z,3.57
2022-12-26T18:46:16.037Z,3.30
2022-12-26T18:48:44.392Z,3.13
2022-12-26T18:51:12.944Z,3.30
2022-12-26T18:53:41.336Z,5.17
2022-12-26T18:56:13.804Z,3.60
2022-12-26T18:58:41.892Z,3.80
2022-12-26T19:01:13.779Z,3.60
2022-12-26T19:03:42.337Z,3.50
2022-12-26T19:06:12.089Z,3.77
2022-12-26T19:08:40.388Z,4.20
2022-12-26T19:11:08.501Z,3.77
2022-12-26T19:13:37.219Z,3.97
2022-12-26T19:16:06.035Z,3.77
2022-12-26T19:18:35.706Z,3.90
2022-12-26T19:21:04.351Z,4.10
2022-12-26T19:23:32.635Z,4.33
2022-12-26T19:26:00.839Z,3.70
2022-12-26T19:28:29.233Z,4.00
2022-12-26T19:30:57.420Z,3.47
2022-12-26T19:33:25.521Z,4.43
2022-12-26T19:35:57.713Z,4.10
2022-12-26T19:38:26.039Z,4.17
2022-12-26T19:40:54.163Z,3.97
2022-12-26T19:43:22.426Z,4.23
2022-12-26T19:45:50.699Z,4.30
2022-12-26T19:48:18.815Z,4.80
2022-12-26T19:50:46.913Z,4.53
2022-12-26T19:53:16.534Z,4.40
2022-12-26T19:55:44.689Z,4.27
2022-12-26T19:58:12.829Z,4.77
2022-12-26T20:00:41.154Z,4.10
2022-12-26T20:03:09.367Z,4.10
2022-12-26T20:05:37.912Z,3.53
2022-12-26T20:08:06.579Z,3.40
2022-12-26T20:10:36.315Z,3.30
2022-12-26T20:13:04.569Z,3.27
2022-12-26T20:15:34.189Z,2.53
2022-12-26T20:18:02.576Z,2.90
2022-12-26T20:20:30.734Z,3.00
2022-12-26T20:22:58.986Z,2.90
2022-12-26T20:25:27.260Z,3.03
2022-12-26T20:27:56.805Z,2.60
2022-12-26T20:30:24.981Z,2.90
2022-12-26T20:32:53.177Z,2.53
2022-12-26T20:35:21.232Z,2.80
2022-12-26T20:37:49.355Z,2.30
2022-12-26T20:40:17.663Z,2.47
2022-12-26T20:42:45.908Z,2.67
2022-12-26T20:45:15.556Z,2.97
2022-12-26T20:47:44.121Z,3.17
2022-12-26T20:50:12.280Z,2.60
2022-12-26T20:52:40.439Z,3.20
2022-12-26T20:55:09.155Z,2.53
2022-12-26T20:57:37.266Z,2.80
2022-12-26T21:00:07.064Z,2.43
2022-12-26T21:02:36.724Z,2.40
2022-12-26T21:05:05.641Z,2.90
2022-12-26T21:07:33.984Z,2.87
2022-12-26T21:10:02.134Z,2.63
2022-12-26T21:12:30.262Z,2.30
2022-12-26T21:14:58.469Z,3.17
2022-12-26T21:17:26.595Z,2.40
2022-12-26T21:19:56.192Z,3.10
2022-12-26T21:22:24.615Z,3.10
2022-12-26T21:24:52.781Z,2.90
2022-12-26T21:27:20.932Z,4.70
2022-12-26T21:29:49.187Z,4.70
2022-12-26T21:32:17.218Z,4.60
2022-12-26T21:34:45.647Z,3.93
2022-12-26T21:37:32.458Z,3.67
2022-12-26T21:40:00.587Z,3.33
2022-12-26T21:42:28.737Z,3.10
2022-12-26T21:44:56.922Z,2.80
2022-12-26T21:47:25.092Z,3.93
2022-12-26T21:49:53.209Z,3.57
2022-12-26T21:52:22.700Z,3.30
2022-12-26T21:55:08.161Z,3.30
2022-12-26T21:57:36.406Z,3.30
2022-12-26T22:00:05.514Z,3.27
2022-12-26T22:02:53.276Z,3.13
2022-12-26T22:05:23.193Z,2.77
2022-12-26T22:07:55.175Z,2.90
2022-12-26T22:10:41.190Z,2.93
2022-12-26T22:13:09.810Z,2.90
2022-12-26T22:15:59.924Z,3.00
2022-12-26T22:18:28.316Z,2.67
2022-12-26T22:20:56.540Z,2.60
2022-12-26T22:23:26.966Z,2.70
2022-12-26T22:25:55.929Z,2.60
2022-12-26T22:28:24.334Z,2.83
2022-12-26T22:30:52.890Z,3.10
2022-12-26T22:33:21.204Z,2.27
2022-12-26T22:35:49.789Z,2.83
2022-12-26T22:38:18.191Z,2.87
2022-12-26T22:40:55.750Z,2.77
2022-12-26T22:43:24.630Z,2.87
2022-12-26T22:45:53.151Z,2.50
2022-12-26T22:48:21.816Z,2.40
2022-12-26T22:50:52.607Z,2.43
2022-12-26T22:53:21.218Z,2.77
2022-12-26T22:55:50.489Z,2.40
2022-12-26T22:58:20.372Z,2.40
2022-12-26T23:00:49.215Z,3.00
2022-12-26T23:03:17.471Z,2.93
2022-12-26T23:05:46.060Z,2.70
2022-12-26T23:08:18.605Z,3.20
2022-12-26T23:10:48.823Z,2.83
2022-12-26T23:13:19.194Z,2.50
2022-12-26T23:15:53.927Z,2.50
2022-12-26T23:18:46.153Z,2.10
2022-12-26T23:21:41.872Z,3.20
2022-12-26T23:24:14.684Z,2.63
2022-12-26T23:26:45.110Z,2.60
2022-12-26T23:29:33.032Z,2.30
2022-12-26T23:32:01.478Z,2.30
2022-12-26T23:34:29.804Z,3.07
2022-12-26T23:36:57.963Z,2.27
2022-12-26T23:39:26.122Z,2.20
2022-12-26T23:41:54.597Z,2.60
2022-12-26T23:44:24.136Z,2.83
2022-12-26T23:46:52.385Z,2.80
2022-12-26T23:49:20.574Z,2.83
2022-12-26T23:51:48.719Z,2.80
2022-12-26T23:54:16.924Z,3.33
2022-12-26T23:56:45.103Z,2.87
2022-12-26T23:59:13.213Z,2.77
